createdAt,value
2022-11-21T00:00:10.056Z,15.60
2022-11-21T00:02:43.122Z,20.08
2022-11-21T00:05:10.073Z,14.77
2022-11-21T00:07:43.160Z,16.48
2022-11-21T00:10:17.150Z,16.13
2022-11-21T00:12:44.026Z,16.15
2022-11-21T00:15:11.136Z,15.23
2022-11-21T00:17:45.177Z,16.30
2022-11-21T00:20:12.165Z,16.80
2022-11-21T00:22:45.139Z,17.70
2022-11-21T00:25:12.428Z,14.45
2022-11-21T00:27:46.136Z,17.80
2022-11-21T00:30:19.953Z,16.05
2022-11-21T00:32:53.181Z,16.27
2022-11-21T00:35:20.040Z,15.20
2022-11-21T00:37:53.204Z,14.00
2022-11-21T00:40:26.213Z,18.33
2022-11-21T00:42:53.287Z,13.70
2022-11-21T00:45:27.186Z,17.95
2022-11-21T00:47:54.234Z,14.30
2022-11-21T00:50:28.113Z,15.07
2022-11-21T00:53:03.168Z,16.17
2022-11-21T00:55:30.042Z,17.98
2022-11-21T00:57:56.868Z,15.68
2022-11-21T01:00:30.269Z,17.50
2022-11-21T01:02:57.161Z,15.30
2022-11-21T01:05:24.033Z,15.75
2022-11-21T01:07:57.151Z,14.07
2022-11-21T01:10:23.988Z,16.45
2022-11-21T01:12:50.871Z,15.77
2022-11-21T01:15:24.208Z,14.43
2022-11-21T01:17:51.107Z,14.77
2022-11-21T01:20:24.156Z,17.25
2022-11-21T01:22:51.064Z,15.43
2022-11-21T01:25:24.210Z,15.40
2022-11-21T01:27:57.204Z,16.33
2022-11-21T01:30:30.180Z,19.00
2022-11-21T01:33:03.174Z,15.30
2022-11-21T01:35:30.102Z,13.95
2022-11-21T01:37:56.996Z,17.95
2022-11-21T01:40:30.218Z,15.23
2022-11-21T01:43:04.413Z,13.27
2022-11-21T01:46:11.170Z,16.50
2022-11-21T01:48:52.490Z,14.10
2022-11-21T01:51:46.223Z,13.27
2022-11-21T01:54:39.766Z,13.35
2022-11-21T01:57:39.180Z,13.98
2022-11-21T02:00:20.342Z,13.10
2022-11-21T02:02:58.195Z,14.68
2022-11-21T02:05:38.209Z,16.17
2022-11-21T02:08:17.800Z,13.02
2022-11-21T02:11:13.184Z,13.10
2022-11-21T02:13:40.085Z,15.35
2022-11-21T02:16:07.332Z,13.35
2022-11-21T02:18:41.206Z,11.23
2022-11-21T02:21:46.197Z,14.80
2022-11-21T02:25:07.132Z,13.38
2022-11-21T02:27:40.214Z,12.68
2022-11-21T02:30:09.048Z,12.95
2022-11-21T02:32:45.215Z,11.43
2022-11-21T02:35:18.219Z,12.90
2022-11-21T02:37:53.444Z,11.65
2022-11-21T02:40:30.190Z,10.75
2022-11-21T02:43:26.195Z,14.30
2022-11-21T02:45:53.044Z,10.82
2022-11-21T02:48:26.262Z,11.65
2022-11-21T02:50:59.207Z,10.85
2022-11-21T02:53:32.210Z,9.07
2022-11-21T02:55:59.106Z,9.70
2022-11-21T02:58:33.210Z,9.02
2022-11-21T03:01:00.163Z,11.00
2022-11-21T03:03:33.255Z,8.98
2022-11-21T03:06:06.212Z,8.93
2022-11-21T03:08:39.233Z,8.50
2022-11-21T03:11:12.230Z,9.93
2022-11-21T03:13:39.099Z,9.93
2022-11-21T03:16:12.198Z,9.05
2022-11-21T03:18:45.198Z,12.65
2022-11-21T03:21:12.071Z,8.02
2022-11-21T03:23:50.080Z,11.30
2022-11-21T03:26:17.157Z,10.73
2022-11-21T03:28:50.246Z,9.43
2022-11-21T03:31:17.144Z,8.07
2022-11-21T03:33:43.993Z,8.68
2022-11-21T03:36:17.205Z,10.38
2022-11-21T03:38:44.115Z,7.80
2022-11-21T03:41:17.226Z,8.20
2022-11-21T03:43:44.115Z,7.30
2022-11-21T03:46:17.193Z,9.00
2022-11-21T03:48:44.062Z,8.57
2022-11-21T03:51:17.205Z,8.20
2022-11-21T03:53:44.057Z,7.35
2022-11-21T03:56:17.263Z,8.93
2022-11-21T03:58:45.762Z,10.50
2022-11-21T04:01:19.295Z,10.63
2022-11-21T04:03:53.220Z,6.43
2022-11-21T04:06:21.441Z,9.32
2022-11-21T04:08:55.233Z,9.73
2022-11-21T04:11:22.140Z,11.23
2022-11-21T04:13:55.217Z,8.55
2022-11-21T04:16:28.243Z,8.90
2022-11-21T04:19:01.212Z,9.57
2022-11-21T04:21:28.072Z,7.75
2022-11-21T04:24:01.227Z,7.65
2022-11-21T04:26:28.100Z,7.22
2022-11-21T04:28:54.937Z,9.18
2022-11-21T04:31:28.272Z,8.90
2022-11-21T04:33:55.170Z,6.80
2022-11-21T04:36:28.263Z,9.50
2022-11-21T04:38:55.144Z,7.82
2022-11-21T04:41:28.264Z,11.02
2022-11-21T04:43:55.129Z,7.88
2022-11-21T04:46:22.202Z,7.07
2022-11-21T04:48:55.245Z,7.13
2022-11-21T04:51:22.152Z,8.30
2022-11-21T04:53:55.307Z,7.60
2022-11-21T04:56:29.295Z,8.48
2022-11-21T04:59:02.294Z,9.23
2022-11-21T05:01:35.379Z,9.02
2022-11-21T05:04:09.270Z,8.90
2022-11-21T05:06:36.112Z,8.30
2022-11-21T05:09:09.275Z,6.82
2022-11-21T05:11:36.109Z,5.78
2022-11-21T05:14:03.002Z,6.78
2022-11-21T05:16:36.275Z,6.90
2022-11-21T05:19:03.167Z,5.68
2022-11-21T05:21:36.271Z,6.47
2022-11-21T05:24:03.160Z,5.15
2022-11-21T05:26:36.261Z,10.00
2022-11-21T05:29:03.203Z,6.75
2022-11-21T05:31:36.289Z,10.35
2022-11-21T05:34:03.140Z,7.82
2022-11-21T05:36:36.272Z,6.38
2022-11-21T05:39:03.266Z,9.00
2022-11-21T05:41:30.253Z,10.65
2022-11-21T05:44:03.276Z,9.00
2022-11-21T05:46:36.293Z,11.20
2022-11-21T05:49:03.185Z,9.45
2022-11-21T05:51:30.030Z,8.38
2022-11-21T05:54:03.291Z,9.80
2022-11-21T05:56:30.284Z,11.10
2022-11-21T05:59:04.258Z,8.35
2022-11-21T06:01:31.125Z,7.57
2022-11-21T06:04:04.314Z,6.57
2022-11-21T06:06:31.537Z,6.80
2022-11-21T06:09:10.721Z,8.43
2022-11-21T06:11:40.095Z,6.97
2022-11-21T06:14:13.395Z,6.30
2022-11-21T06:16:45.344Z,8.18
2022-11-21T06:19:21.369Z,9.35
2022-11-21T06:21:48.448Z,7.03
2022-11-21T06:24:20.806Z,7.72
2022-11-21T06:26:55.420Z,9.52
2022-11-21T06:29:35.019Z,7.63
2022-11-21T06:32:09.489Z,9.75
2022-11-21T06:34:36.578Z,10.95
2022-11-21T06:37:10.414Z,14.48
2022-11-21T06:39:37.392Z,21.20
2022-11-21T06:42:11.330Z,16.20
2022-11-21T06:44:44.285Z,13.40
2022-11-21T06:47:11.584Z,10.82
2022-11-21T06:49:45.390Z,8.65
2022-11-21T06:52:19.365Z,9.52
2022-11-21T06:54:53.410Z,8.00
2022-11-21T06:57:27.368Z,11.30
2022-11-21T06:59:54.446Z,8.60
2022-11-21T07:02:27.347Z,8.68
2022-11-21T07:04:54.200Z,8.65
2022-11-21T07:07:21.112Z,8.02
2022-11-21T07:09:54.524Z,6.15
2022-11-21T07:12:21.428Z,6.88
2022-11-21T07:14:48.381Z,9.40
2022-11-21T07:17:22.356Z,7.45
2022-11-21T07:19:49.520Z,8.68
2022-11-21T07:22:23.416Z,9.18
2022-11-21T07:24:57.392Z,13.57
2022-11-21T07:27:24.277Z,17.27
2022-11-21T07:29:57.310Z,33.58
2022-11-21T07:32:25.841Z,34.15
2022-11-21T07:34:59.362Z,23.38
2022-11-21T07:37:32.388Z,35.63
2022-11-21T07:39:59.355Z,20.77
2022-11-21T07:42:32.375Z,14.32
2022-11-21T07:44:59.437Z,8.88
2022-11-21T07:47:26.374Z,12.25
2022-11-21T07:49:59.343Z,10.43
2022-11-21T07:52:26.246Z,8.48
2022-11-21T07:54:59.380Z,8.13
2022-11-21T07:57:26.278Z,8.23
2022-11-21T07:59:59.361Z,11.13
2022-11-21T08:02:34.454Z,7.28
2022-11-21T08:05:01.409Z,7.90
2022-11-21T08:07:28.344Z,5.97
2022-11-21T08:10:01.385Z,8.05
2022-11-21T08:12:34.353Z,7.43
2022-11-21T08:15:07.385Z,7.93
2022-11-21T08:17:34.336Z,8.80
2022-11-21T08:20:07.359Z,11.13
2022-11-21T08:22:41.552Z,8.55
2022-11-21T08:25:16.405Z,19.67
2022-11-21T08:27:49.363Z,168.60
2022-11-21T08:30:16.349Z,178.98
2022-11-21T08:32:49.319Z,67.25
2022-11-21T08:35:16.513Z,21.70
2022-11-21T08:37:56.359Z,19.92
2022-11-21T08:40:24.483Z,14.45
2022-11-21T08:43:16.369Z,14.05
2022-11-21T08:45:43.201Z,10.07
2022-11-21T08:48:19.374Z,8.85
2022-11-21T08:50:46.282Z,19.27
2022-11-21T08:53:19.402Z,12.63
2022-11-21T08:55:46.332Z,12.38
2022-11-21T08:58:19.422Z,18.50
2022-11-21T09:00:46.452Z,13.70
2022-11-21T09:03:16.737Z,10.35
2022-11-21T09:05:52.401Z,11.95
2022-11-21T09:08:25.387Z,10.63
2022-11-21T09:10:59.118Z,10.18
2022-11-21T09:13:26.097Z,14.65
2022-11-21T09:15:59.371Z,10.88
2022-11-21T09:18:26.253Z,9.77
2022-11-21T09:20:59.387Z,12.02
2022-11-21T09:23:32.374Z,11.48
2022-11-21T09:26:01.236Z,11.27
2022-11-21T09:28:34.377Z,8.35
2022-11-21T09:31:02.823Z,8.57
2022-11-21T09:33:36.392Z,12.38
2022-11-21T09:36:10.412Z,11.40
2022-11-21T09:38:37.305Z,11.73
2022-11-21T09:41:44.411Z,11.55
2022-11-21T09:44:42.022Z,10.63
2022-11-21T09:47:47.373Z,10.60
2022-11-21T09:50:14.321Z,12.50
2022-11-21T09:53:26.408Z,11.43
2022-11-21T09:55:57.835Z,11.98
2022-11-21T09:58:47.082Z,10.18
2022-11-21T10:01:14.725Z,10.52
2022-11-21T10:03:58.392Z,12.30
2022-11-21T10:06:38.538Z,14.68
2022-11-21T10:09:48.193Z,18.40
2022-11-21T10:13:06.401Z,18.20
2022-11-21T10:15:52.475Z,12.30
2022-11-21T10:18:37.546Z,20.35
2022-11-21T10:21:22.361Z,24.08
2022-11-21T10:24:45.449Z,23.55
2022-11-21T10:27:53.037Z,24.67
2022-11-21T10:30:27.384Z,16.60
2022-11-21T10:33:08.393Z,15.25
2022-11-21T10:35:47.413Z,19.63
2022-11-21T10:38:32.442Z,18.77
2022-11-21T10:41:19.680Z,19.73
2022-11-21T10:44:20.470Z,16.88
2022-11-21T10:47:00.564Z,13.30
2022-11-21T10:49:40.495Z,13.85
2022-11-21T10:52:14.178Z,12.82
2022-11-21T10:55:18.404Z,10.48
2022-11-21T10:57:58.445Z,10.02
2022-11-21T11:00:26.579Z,11.88
2022-11-21T11:03:03.411Z,10.07
2022-11-21T11:05:37.357Z,9.82
2022-11-21T11:08:17.443Z,9.50
2022-11-21T11:10:52.573Z,8.82
2022-11-21T11:16:22.663Z,10.57
2022-11-21T11:19:04.940Z,10.10
2022-11-21T11:21:58.385Z,12.50
2022-11-21T11:24:26.386Z,9.10
2022-11-21T11:27:07.385Z,10.40
2022-11-21T11:29:34.437Z,13.38
2022-11-21T11:32:02.995Z,10.63
2022-11-21T11:34:42.414Z,15.23
2022-11-21T11:37:40.137Z,9.70
2022-11-21T11:40:37.477Z,20.45
2022-11-21T11:44:08.454Z,9.05
2022-11-21T11:47:00.028Z,6.93
2022-11-21T11:49:46.431Z,6.75
2022-11-21T11:52:13.334Z,9.48
2022-11-21T11:54:57.448Z,7.40
2022-11-21T11:57:24.290Z,9.63
2022-11-21T12:00:28.442Z,8.30
2022-11-21T12:03:24.255Z,6.57
2022-11-21T12:06:57.362Z,7.43
2022-11-21T12:10:02.537Z,7.93
2022-11-21T12:12:36.868Z,9.05
2022-11-21T12:15:26.520Z,8.35
2022-11-21T12:18:26.871Z,8.05
2022-11-21T12:21:06.485Z,6.13
2022-11-21T12:24:00.461Z,5.93
2022-11-21T12:27:12.806Z,7.68
2022-11-21T12:30:22.479Z,6.43
2022-11-21T12:33:34.415Z,5.97
2022-11-21T12:36:19.488Z,10.43
2022-11-21T12:39:07.474Z,11.32
2022-11-21T12:42:20.514Z,16.08
2022-11-21T12:45:37.161Z,16.05
2022-11-21T12:48:43.520Z,9.48
2022-11-21T12:51:29.327Z,10.18
2022-11-21T12:54:50.462Z,10.13
2022-11-21T12:57:20.746Z,11.23
2022-11-21T13:00:15.471Z,12.85
2022-11-21T13:03:07.779Z,11.85
2022-11-21T13:05:40.858Z,10.88
2022-11-21T13:08:24.643Z,10.77
2022-11-21T13:11:00.800Z,11.95
2022-11-21T13:13:43.701Z,10.95
2022-11-21T13:16:17.965Z,11.32
2022-11-21T13:18:53.448Z,21.92
2022-11-21T13:21:53.475Z,13.90
2022-11-21T13:25:02.509Z,23.48
2022-11-21T13:27:42.696Z,18.95
2022-11-21T13:30:16.480Z,13.48
2022-11-21T13:32:49.754Z,8.30
2022-11-21T13:35:26.480Z,11.52
2022-11-21T13:38:07.488Z,11.07
2022-11-21T13:40:36.917Z,12.38
2022-11-21T13:46:00.417Z,11.40
2022-11-21T13:48:58.496Z,10.93
2022-11-21T13:51:40.731Z,11.52
2022-11-21T13:54:47.517Z,12.00
2022-11-21T13:57:49.718Z,12.18
2022-11-21T14:00:54.613Z,12.48
2022-11-21T14:03:54.498Z,11.63
2022-11-21T14:06:27.097Z,11.57
2022-11-21T14:09:33.499Z,12.32
2022-11-21T14:12:05.731Z,11.85
2022-11-21T14:14:46.528Z,12.35
2022-11-21T14:17:43.975Z,10.82
2022-11-21T14:20:27.840Z,12.25
2022-11-21T14:23:12.526Z,11.68
2022-11-21T14:25:53.544Z,9.93
2022-11-21T14:28:33.614Z,13.93
2022-11-21T14:31:08.485Z,13.13
2022-11-21T14:33:48.541Z,11.88
2022-11-21T14:36:24.499Z,9.40
2022-11-21T14:39:35.947Z,10.48
2022-11-21T14:42:03.823Z,12.00
2022-11-21T14:44:37.547Z,12.18
2022-11-21T14:47:26.852Z,11.38
2022-11-21T14:50:07.264Z,10.68
2022-11-21T14:52:43.532Z,13.18
2022-11-21T14:55:30.720Z,9.18
2022-11-21T14:58:08.574Z,10.07
2022-11-21T15:00:59.031Z,10.90
2022-11-21T15:03:26.467Z,20.02
2022-11-21T15:06:10.516Z,23.35
2022-11-21T15:09:29.050Z,19.63
2022-11-21T15:11:40.529Z,12.35
2022-11-21T15:14:31.394Z,13.40
2022-11-21T15:17:04.567Z,11.85
2022-11-21T15:19:31.879Z,12.30
2022-11-21T15:22:07.506Z,11.90
2022-11-21T15:24:42.070Z,11.85
2022-11-21T15:27:33.590Z,12.43
2022-11-21T15:30:28.533Z,11.65
2022-11-21T15:33:34.552Z,12.73
2022-11-21T15:36:18.562Z,12.95
2022-11-21T15:38:57.293Z,10.82
2022-11-21T15:41:38.558Z,9.57
2022-11-21T15:44:11.606Z,11.27
2022-11-21T15:46:45.546Z,13.38
2022-11-21T15:52:09.963Z,14.45
2022-11-21T15:54:43.574Z,18.58
2022-11-21T15:57:17.424Z,57.75
2022-11-21T15:59:45.337Z,75.78
2022-11-21T16:02:22.576Z,43.08
2022-11-21T16:04:49.602Z,25.67
2022-11-21T16:07:22.658Z,21.05
2022-11-21T16:09:49.574Z,23.42
2022-11-21T16:12:17.636Z,34.03
2022-11-21T16:14:50.542Z,34.03
2022-11-21T16:17:17.436Z,31.63
2022-11-21T16:19:45.610Z,32.95
2022-11-21T16:22:18.613Z,40.55
2022-11-21T16:24:45.485Z,44.20
2022-11-21T16:27:18.606Z,50.35
2022-11-21T16:29:46.920Z,58.55
2022-11-21T16:32:20.662Z,77.68
2022-11-21T16:34:47.653Z,106.00
2022-11-21T16:37:14.667Z,106.85
2022-11-21T16:39:48.596Z,99.00
2022-11-21T16:42:21.576Z,96.10
2022-11-21T16:44:48.673Z,175.57
2022-11-21T16:47:22.653Z,139.73
2022-11-21T16:49:49.612Z,109.47
2022-11-21T16:52:22.643Z,91.22
2022-11-21T16:54:49.776Z,65.70
2022-11-21T16:57:23.644Z,51.25
2022-11-21T16:59:58.171Z,39.20
2022-11-21T17:02:26.180Z,32.92
2022-11-21T17:04:59.692Z,28.10
2022-11-21T17:07:33.653Z,20.95
2022-11-21T17:10:00.845Z,20.83
2022-11-21T17:12:34.676Z,17.80
2022-11-21T17:15:01.827Z,18.10
2022-11-21T17:17:35.877Z,16.40
2022-11-21T17:20:03.640Z,17.48
2022-11-21T17:22:36.635Z,13.75
2022-11-21T17:25:03.821Z,14.50
2022-11-21T17:27:37.667Z,14.77
2022-11-21T17:30:11.627Z,14.82
2022-11-21T17:32:46.974Z,12.13
2022-11-21T17:35:14.142Z,18.10
2022-11-21T17:37:47.676Z,13.52
2022-11-21T17:40:14.627Z,14.05
2022-11-21T17:42:41.666Z,14.27
2022-11-21T17:45:15.648Z,14.80
2022-11-21T17:47:42.625Z,13.48
2022-11-21T17:50:16.724Z,17.70
2022-11-21T17:52:50.634Z,17.42
2022-11-21T17:55:17.633Z,21.48
2022-11-21T17:57:50.656Z,17.75
2022-11-21T18:00:17.774Z,15.93
2022-11-21T18:02:51.903Z,50.85
2022-11-21T18:05:18.984Z,34.58
2022-11-21T18:07:52.722Z,30.73
2022-11-21T18:10:42.732Z,33.53
2022-11-21T18:13:16.698Z,35.38
2022-11-21T18:15:43.704Z,36.83
2022-11-21T18:18:16.645Z,30.63
2022-11-21T18:20:43.924Z,32.60
2022-11-21T18:23:10.905Z,33.42
2022-11-21T18:25:44.745Z,41.70
2022-11-21T18:28:11.635Z,46.55
2022-11-21T18:30:44.777Z,60.70
2022-11-21T18:33:19.156Z,70.38
2022-11-21T18:36:00.755Z,58.92
2022-11-21T18:38:59.918Z,63.50
2022-11-21T18:41:31.815Z,50.90
2022-11-21T18:44:02.880Z,53.13
2022-11-21T18:46:37.663Z,53.05
2022-11-21T18:49:06.827Z,50.20
2022-11-21T18:51:40.674Z,48.33
2022-11-21T18:54:14.819Z,32.38
2022-11-21T18:56:41.946Z,29.02
2022-11-21T18:59:08.961Z,27.50
2022-11-21T19:01:43.941Z,23.58
2022-11-21T19:04:17.731Z,37.50
2022-11-21T19:06:50.786Z,47.60
2022-11-21T19:09:29.429Z,29.00
2022-11-21T19:11:59.320Z,24.65
2022-11-21T19:14:32.733Z,18.80
2022-11-21T19:17:06.883Z,20.20
2022-11-21T19:19:35.272Z,17.00
2022-11-21T19:22:09.925Z,14.23
2022-11-21T19:24:43.848Z,17.70
2022-11-21T19:27:11.093Z,17.65
2022-11-21T19:29:46.116Z,16.42
2022-11-21T19:32:13.338Z,22.50
2022-11-21T19:34:46.756Z,16.38
2022-11-21T19:37:13.811Z,12.63
2022-11-21T19:39:47.668Z,13.88
2022-11-21T19:42:21.743Z,14.70
2022-11-21T19:44:55.766Z,20.75
2022-11-21T19:47:32.189Z,18.08
2022-11-21T19:50:00.223Z,25.27
2022-11-21T19:52:33.973Z,24.13
2022-11-21T19:55:01.035Z,17.60
2022-11-21T19:57:34.812Z,20.42
2022-11-21T20:00:02.069Z,22.27
2022-11-21T20:02:35.826Z,23.27
2022-11-21T20:05:02.831Z,16.35
2022-11-21T20:07:38.896Z,13.23
2022-11-21T20:10:06.616Z,15.77
2022-11-21T20:12:35.653Z,15.93
2022-11-21T20:15:08.779Z,17.88
2022-11-21T20:17:35.947Z,17.35
2022-11-21T20:20:09.803Z,15.65
2022-11-21T20:22:43.726Z,14.85
2022-11-21T20:25:17.843Z,15.02
2022-11-21T20:27:44.792Z,13.65
2022-11-21T20:30:18.791Z,16.85
2022-11-21T20:32:45.805Z,14.35
2022-11-21T20:35:19.800Z,14.02
2022-11-21T20:37:46.893Z,16.80
2022-11-21T20:40:20.725Z,16.33
2022-11-21T20:42:47.762Z,15.38
2022-11-21T20:48:13.626Z,14.93
2022-11-21T20:53:53.108Z,14.57
2022-11-21T20:56:27.811Z,13.45
2022-11-21T20:58:54.985Z,13.77
2022-11-21T21:01:28.995Z,14.43
2022-11-21T21:04:02.876Z,15.32
2022-11-21T21:06:29.999Z,17.95
2022-11-21T21:09:05.800Z,19.05
2022-11-21T21:11:54.158Z,17.73
2022-11-21T21:14:24.511Z,16.48
2022-11-21T21:16:57.808Z,18.55
2022-11-21T21:19:24.928Z,18.88
2022-11-21T21:21:58.811Z,15.85
2022-11-21T21:24:25.930Z,16.52
2022-11-21T21:26:54.640Z,17.65
2022-11-21T21:29:29.402Z,17.30
2022-11-21T21:31:56.588Z,16.00
2022-11-21T21:34:30.249Z,18.20
2022-11-21T21:36:57.509Z,19.30
2022-11-21T21:39:31.980Z,18.02
2022-11-21T21:41:59.196Z,17.23
2022-11-21T21:44:32.775Z,18.80
2022-11-21T21:47:06.785Z,19.13
2022-11-21T21:49:41.016Z,18.55
2022-11-21T21:52:14.858Z,19.42
2022-11-21T21:54:48.743Z,18.15
2022-11-21T21:57:16.009Z,17.92
2022-11-21T21:59:43.274Z,19.10
2022-11-21T22:02:20.192Z,18.83
2022-11-21T22:04:52.014Z,21.33
2022-11-21T22:07:27.939Z,22.05
2022-11-21T22:09:55.150Z,22.42
2022-11-21T22:12:28.982Z,18.23
2022-11-21T22:14:56.060Z,19.58
2022-11-21T22:17:29.811Z,26.08
2022-11-21T22:19:57.140Z,25.52
2022-11-21T22:22:30.902Z,24.98
2022-11-21T22:24:57.897Z,21.38
2022-11-21T22:27:31.916Z,22.65
2022-11-21T22:30:05.906Z,19.33
2022-11-21T22:32:33.102Z,19.50
2022-11-21T22:35:06.875Z,19.27
2022-11-21T22:37:47.914Z,20.83
2022-11-21T22:40:15.703Z,16.67
2022-11-21T22:42:48.831Z,17.98
2022-11-21T22:45:22.973Z,17.75
2022-11-21T22:47:56.934Z,20.77
2022-11-21T22:50:30.858Z,17.80
2022-11-21T22:53:04.882Z,14.18
2022-11-21T22:55:38.915Z,15.02
2022-11-21T22:58:12.893Z,14.23
2022-11-21T23:00:39.940Z,13.38
2022-11-21T23:03:14.005Z,14.48
2022-11-21T23:05:47.859Z,16.73
2022-11-21T23:08:14.910Z,18.73
2022-11-21T23:10:48.915Z,22.00
2022-11-21T23:13:15.978Z,21.90
2022-11-21T23:15:49.872Z,21.35
2022-11-21T23:18:23.787Z,21.92
2022-11-21T23:20:50.716Z,22.20
2022-11-21T23:23:23.824Z,20.30
2022-11-21T23:25:57.855Z,20.98
2022-11-21T23:28:24.872Z,22.42
2022-11-21T23:30:58.915Z,21.80
2022-11-21T23:33:25.905Z,19.00
2022-11-21T23:35:52.997Z,22.35
2022-11-21T23:38:26.898Z,25.17
2022-11-21T23:40:53.888Z,19.58
2022-11-21T23:43:27.875Z,23.13
2022-11-21T23:45:54.988Z,21.85
2022-11-21T23:48:28.873Z,18.92
2022-11-21T23:50:56.185Z,21.35
2022-11-21T23:53:29.906Z,22.80
2022-11-21T23:55:56.843Z,17.55
2022-11-21T23:58:23.865Z,18.17
